createdAt,value
2019-04-26T00:00:58.176Z,11.50
2019-04-26T00:03:31.877Z,11.60
2019-04-26T00:05:59.564Z,11.70
2019-04-26T00:08:26.864Z,11.70
2019-04-26T00:11:04.797Z,11.80
2019-04-26T00:16:46.112Z,11.70
2019-04-26T00:19:13.789Z,11.70
2019-04-26T00:21:41.492Z,11.70
2019-04-26T00:24:09.097Z,11.90
2019-04-26T00:26:36.317Z,12.00
2019-04-26T00:29:03.729Z,11.90
2019-04-26T00:31:30.933Z,11.80
2019-04-26T00:33:58.124Z,11.80
2019-04-26T00:36:25.321Z,11.90
2019-04-26T00:38:52.524Z,11.70
2019-04-26T00:41:20.669Z,11.50
2019-04-26T00:43:48.859Z,11.30
2019-04-26T00:46:16.856Z,11.10
2019-04-26T00:48:44.544Z,11.00
2019-04-26T00:51:12.965Z,11.00
2019-04-26T00:53:43.561Z,11.00
2019-04-26T00:56:11.068Z,10.90
2019-04-26T00:58:39.756Z,10.80
2019-04-26T01:01:07.064Z,10.60
2019-04-26T01:03:34.246Z,10.70
2019-04-26T01:06:03.633Z,10.80
2019-04-26T01:08:30.872Z,10.90
2019-04-26T01:10:58.080Z,10.90
2019-04-26T01:13:26.158Z,10.90
2019-04-26T01:15:53.682Z,10.60
2019-04-26T01:18:20.861Z,10.60
2019-04-26T01:20:50.868Z,10.70
2019-04-26T01:23:19.414Z,10.60
2019-04-26T01:25:58.033Z,10.50
2019-04-26T01:28:36.177Z,10.30
2019-04-26T01:31:06.259Z,10.30
2019-04-26T01:33:36.661Z,10.40
2019-04-26T01:36:12.764Z,10.40
2019-04-26T01:38:33.121Z,10.40
2019-04-26T01:41:04.469Z,10.40
2019-04-26T01:43:45.532Z,10.20
2019-04-26T01:46:20.652Z,10.10
2019-04-26T01:48:56.864Z,10.10
2019-04-26T01:51:31.273Z,9.80
2019-04-26T01:53:58.460Z,9.70
2019-04-26T01:56:31.404Z,9.70
2019-04-26T01:58:59.073Z,9.60
2019-04-26T02:01:44.434Z,9.70
2019-04-26T02:04:11.748Z,9.80
2019-04-26T02:06:38.926Z,9.90
2019-04-26T02:09:08.879Z,9.90
2019-04-26T02:11:36.832Z,9.90
2019-04-26T02:14:04.154Z,9.90
2019-04-26T02:16:31.570Z,9.90
2019-04-26T02:18:58.772Z,9.80
2019-04-26T02:21:30.420Z,9.50
2019-04-26T02:24:13.265Z,9.20
2019-04-26T02:26:42.686Z,9.10
2019-04-26T02:29:14.297Z,9.00
2019-04-26T02:31:44.526Z,9.10
2019-04-26T02:34:12.743Z,9.20
2019-04-26T02:36:56.501Z,9.20
2019-04-26T02:39:17.421Z,9.30
2019-04-26T02:41:46.474Z,9.30
2019-04-26T02:44:12.757Z,9.30
2019-04-26T02:46:46.257Z,9.20
2019-04-26T02:49:22.760Z,9.20
2019-04-26T02:52:02.306Z,9.20
2019-04-26T02:54:46.020Z,9.20
2019-04-26T02:57:28.948Z,9.10
2019-04-26T03:00:03.383Z,9.10
2019-04-26T03:02:33.133Z,8.80
2019-04-26T03:05:05.855Z,8.90
2019-04-26T03:08:13.360Z,8.90
2019-04-26T03:10:50.968Z,8.90
2019-04-26T03:13:43.556Z,8.80
2019-04-26T03:16:35.329Z,8.70
2019-04-26T03:19:34.086Z,8.70
2019-04-26T03:22:19.356Z,8.70
2019-04-26T03:24:56.208Z,8.50
2019-04-26T03:27:50.424Z,8.50
2019-04-26T03:30:26.473Z,8.70
2019-04-26T03:33:45.262Z,8.70
2019-04-26T03:36:42.542Z,8.80
2019-04-26T03:39:37.203Z,8.50
2019-04-26T03:42:38.899Z,8.40
2019-04-26T03:45:20.262Z,8.40
2019-04-26T03:47:57.129Z,8.40
2019-04-26T03:50:37.898Z,8.50
2019-04-26T03:53:35.453Z,8.70
2019-04-26T03:56:53.249Z,8.70
2019-04-26T03:59:54.531Z,8.60
2019-04-26T04:02:36.607Z,8.60
2019-04-26T04:05:20.809Z,8.50
2019-04-26T04:07:51.643Z,8.50
2019-04-26T04:10:23.305Z,8.40
2019-04-26T04:13:18.837Z,8.30
2019-04-26T04:15:49.965Z,8.20
2019-04-26T04:18:22.476Z,8.10
2019-04-26T04:21:22.924Z,8.20
2019-04-26T04:24:08.340Z,8.30
2019-04-26T04:27:19.391Z,8.40
2019-04-26T04:30:42.233Z,8.40
2019-04-26T04:34:06.922Z,8.40
2019-04-26T04:36:46.902Z,8.50
2019-04-26T04:39:54.666Z,8.50
2019-04-26T04:42:53.983Z,8.50
2019-04-26T04:46:30.258Z,8.70
2019-04-26T04:49:35.669Z,8.80
2019-04-26T04:52:27.901Z,9.00
2019-04-26T04:55:07.975Z,9.00
2019-04-26T04:57:50.345Z,9.00
2019-04-26T05:00:55.557Z,9.00
2019-04-26T05:03:38.502Z,9.00
2019-04-26T05:06:23.468Z,9.20
2019-04-26T05:08:57.308Z,9.30
2019-04-26T05:11:53.990Z,9.40
2019-04-26T05:14:42.320Z,9.60
2019-04-26T05:17:34.045Z,9.80
2019-04-26T05:20:31.632Z,9.90
2019-04-26T05:23:46.227Z,10.10
2019-04-26T05:26:55.635Z,10.30
2019-04-26T05:30:03.133Z,10.40
2019-04-26T05:33:18.128Z,10.50
2019-04-26T05:36:31.938Z,10.60
2019-04-26T05:39:09.314Z,10.80
2019-04-26T05:41:58.950Z,10.90
2019-04-26T05:45:40.957Z,11.10
2019-04-26T05:48:31.007Z,11.40
2019-04-26T05:51:32.564Z,11.50
2019-04-26T05:54:30.733Z,11.40
2019-04-26T05:57:06.638Z,11.70
2019-04-26T05:59:45.594Z,11.70
2019-04-26T06:02:59.012Z,11.80
2019-04-26T06:06:05.580Z,11.90
2019-04-26T06:09:09.524Z,12.20
2019-04-26T06:11:48.373Z,12.60
2019-04-26T06:14:39.617Z,12.80
2019-04-26T06:17:42.719Z,12.90
2019-04-26T06:20:28.125Z,12.90
2019-04-26T06:23:11.044Z,13.10
2019-04-26T06:25:55.556Z,13.00
2019-04-26T06:28:47.052Z,13.00
2019-04-26T06:31:25.729Z,13.00
2019-04-26T06:34:31.077Z,12.90
2019-04-26T06:37:17.076Z,13.00
2019-04-26T06:40:24.545Z,13.00
2019-04-26T06:43:30.592Z,13.10
2019-04-26T06:46:48.001Z,13.20
2019-04-26T06:49:26.089Z,13.40
2019-04-26T06:52:05.062Z,13.50
2019-04-26T06:54:44.735Z,13.70
2019-04-26T06:58:01.169Z,14.10
2019-04-26T07:00:42.421Z,14.30
2019-04-26T07:03:39.573Z,14.30
2019-04-26T07:06:09.908Z,14.50
2019-04-26T07:08:57.340Z,15.00
2019-04-26T07:11:46.385Z,15.50
2019-04-26T07:14:39.873Z,15.50
2019-04-26T07:17:13.877Z,15.80
2019-04-26T07:20:23.322Z,16.30
2019-04-26T07:23:18.777Z,16.50
2019-04-26T07:26:14.230Z,16.50
2019-04-26T07:29:06.774Z,16.90
2019-04-26T07:31:45.461Z,17.10
2019-04-26T07:35:02.762Z,17.40
2019-04-26T07:37:46.963Z,17.50
2019-04-26T07:40:45.854Z,18.30
2019-04-26T07:43:55.597Z,18.70
2019-04-26T07:46:36.355Z,19.30
2019-04-26T07:49:46.969Z,20.00
2019-04-26T07:52:35.840Z,20.10
2019-04-26T07:55:37.209Z,20.40
2019-04-26T07:58:41.873Z,20.70
2019-04-26T08:01:46.941Z,20.90
2019-04-26T08:04:19.904Z,21.10
2019-04-26T08:06:54.153Z,21.10
2019-04-26T08:09:27.319Z,21.40
2019-04-26T08:11:58.477Z,21.60
2019-04-26T08:14:45.247Z,21.70
2019-04-26T08:17:40.384Z,21.80
2019-04-26T08:20:18.077Z,22.20
2019-04-26T08:22:52.156Z,22.60
2019-04-26T08:25:20.691Z,23.00
2019-04-26T08:27:50.273Z,23.50
2019-04-26T08:30:19.293Z,23.60
2019-04-26T08:32:54.133Z,23.90
2019-04-26T08:35:32.270Z,23.70
2019-04-26T08:38:13.662Z,23.50
2019-04-26T08:40:37.713Z,23.40
2019-04-26T08:43:16.684Z,23.30
2019-04-26T08:46:03.119Z,23.30
2019-04-26T08:48:44.344Z,23.70
2019-04-26T08:51:20.478Z,23.60
2019-04-26T08:53:49.393Z,23.30
2019-04-26T08:56:21.385Z,23.10
2019-04-26T08:58:52.568Z,23.30
2019-04-26T09:01:29.204Z,23.40
2019-04-26T09:04:03.760Z,23.10
2019-04-26T09:06:55.560Z,22.90
2019-04-26T09:09:26.923Z,23.00
2019-04-26T09:11:59.917Z,22.90
2019-04-26T09:14:29.316Z,23.20
2019-04-26T09:16:56.789Z,22.90
2019-04-26T09:19:26.251Z,22.70
2019-04-26T09:22:12.924Z,23.00
2019-04-26T09:24:46.500Z,23.20
2019-04-26T09:27:22.536Z,23.10
2019-04-26T09:29:55.757Z,22.80
2019-04-26T09:32:28.005Z,22.80
2019-04-26T09:34:56.081Z,22.90
2019-04-26T09:37:23.284Z,23.10
2019-04-26T09:39:50.592Z,23.00
2019-04-26T09:42:39.304Z,23.30
2019-04-26T09:45:24.029Z,23.50
2019-04-26T09:47:55.869Z,23.60
2019-04-26T09:50:36.856Z,23.70
2019-04-26T09:53:04.174Z,23.60
2019-04-26T09:55:35.463Z,23.70
2019-04-26T09:58:00.726Z,23.60
2019-04-26T10:00:28.980Z,23.60
2019-04-26T10:02:56.272Z,23.60
2019-04-26T10:05:23.869Z,23.50
2019-04-26T10:07:51.218Z,23.70
2019-04-26T10:10:22.949Z,24.00
2019-04-26T10:13:06.436Z,23.80
2019-04-26T10:15:49.584Z,24.00
2019-04-26T10:18:20.373Z,24.00
2019-04-26T10:20:46.304Z,23.80
2019-04-26T10:23:13.620Z,23.60
2019-04-26T10:25:40.999Z,23.80
2019-04-26T10:28:11.817Z,23.60
2019-04-26T10:30:38.377Z,23.40
2019-04-26T10:33:06.753Z,23.50
2019-04-26T10:35:34.096Z,23.50
2019-04-26T10:38:01.296Z,23.70
2019-04-26T10:40:35.334Z,24.10
2019-04-26T10:42:57.797Z,24.00
2019-04-26T10:45:26.453Z,24.20
2019-04-26T10:47:53.792Z,24.10
2019-04-26T10:50:21.097Z,24.10
2019-04-26T10:53:00.465Z,24.00
2019-04-26T10:55:52.909Z,24.30
2019-04-26T10:58:31.999Z,24.20
2019-04-26T11:01:00.846Z,23.90
2019-04-26T11:03:28.045Z,24.10
2019-04-26T11:05:55.437Z,24.20
2019-04-26T11:08:22.753Z,23.80
2019-04-26T11:10:50.066Z,23.80
2019-04-26T11:13:17.593Z,23.90
2019-04-26T11:15:45.418Z,23.80
2019-04-26T11:18:12.622Z,23.70
2019-04-26T11:20:41.355Z,23.60
2019-04-26T11:23:11.784Z,23.60
2019-04-26T11:25:38.149Z,23.80
2019-04-26T11:28:05.393Z,23.90
2019-04-26T11:30:32.820Z,24.10
2019-04-26T11:33:00.129Z,24.00
2019-04-26T11:35:29.323Z,24.00
2019-04-26T11:37:56.960Z,24.10
2019-04-26T11:40:24.260Z,24.30
2019-04-26T11:42:51.549Z,24.30
2019-04-26T11:45:18.955Z,24.30
2019-04-26T11:47:55.759Z,24.50
2019-04-26T11:50:16.503Z,24.90
2019-04-26T11:52:45.182Z,24.90
2019-04-26T11:55:14.785Z,25.30
2019-04-26T11:57:43.676Z,25.60
2019-04-26T12:00:13.695Z,25.70
2019-04-26T12:02:46.262Z,25.60
2019-04-26T12:05:30.517Z,25.50
2019-04-26T12:08:04.681Z,25.60
2019-04-26T12:10:32.001Z,25.60
2019-04-26T12:13:06.849Z,26.10
2019-04-26T12:15:30.553Z,26.60
2019-04-26T12:17:58.648Z,26.60
2019-04-26T12:20:26.816Z,26.60
2019-04-26T12:22:55.368Z,26.90
2019-04-26T12:25:22.567Z,27.20
2019-04-26T12:27:53.306Z,27.60
2019-04-26T12:30:19.013Z,27.80
2019-04-26T12:32:46.205Z,28.00
2019-04-26T12:35:13.431Z,28.10
2019-04-26T12:37:40.727Z,28.00
2019-04-26T12:40:11.334Z,27.90
2019-04-26T12:42:38.563Z,27.80
2019-04-26T12:45:34.803Z,27.70
2019-04-26T12:48:15.860Z,27.40
2019-04-26T12:50:42.657Z,27.10
2019-04-26T12:53:09.849Z,27.00
2019-04-26T12:55:37.085Z,26.90
2019-04-26T12:58:04.388Z,27.00
2019-04-26T13:00:32.960Z,27.10
2019-04-26T13:03:02.627Z,26.90
2019-04-26T13:05:29.941Z,26.80
2019-04-26T13:07:57.125Z,26.70
2019-04-26T13:10:52.696Z,26.70
2019-04-26T13:13:27.003Z,26.70
2019-04-26T13:16:03.510Z,26.40
2019-04-26T13:18:30.712Z,26.50
2019-04-26T13:20:58.522Z,26.60
2019-04-26T13:23:29.976Z,26.70
2019-04-26T13:25:59.672Z,26.50
2019-04-26T13:28:25.277Z,26.60
2019-04-26T13:30:52.577Z,26.70
2019-04-26T13:33:23.269Z,27.00
2019-04-26T13:36:02.321Z,27.40
2019-04-26T13:38:18.081Z,27.70
2019-04-26T13:40:45.317Z,27.70
2019-04-26T13:43:12.541Z,27.70
2019-04-26T13:46:02.024Z,27.60
2019-04-26T13:49:00.895Z,27.70
2019-04-26T13:51:29.628Z,27.90
2019-04-26T13:53:56.823Z,27.70
2019-04-26T13:56:24.132Z,27.50
2019-04-26T13:58:54.294Z,27.20
2019-04-26T14:01:20.880Z,27.00
2019-04-26T14:03:48.125Z,26.80
2019-04-26T14:06:15.329Z,26.60
2019-04-26T14:08:42.520Z,26.50
2019-04-26T14:11:09.858Z,26.10
2019-04-26T14:13:37.065Z,25.90
2019-04-26T14:16:04.612Z,25.80
2019-04-26T14:18:34.607Z,25.80
2019-04-26T14:21:01.262Z,25.90
2019-04-26T14:23:51.121Z,25.90
2019-04-26T14:26:22.805Z,26.00
2019-04-26T14:28:50.241Z,25.90
2019-04-26T14:31:18.247Z,25.90
2019-04-26T14:33:45.668Z,25.90
2019-04-26T14:36:18.077Z,26.20
2019-04-26T14:38:42.136Z,26.00
2019-04-26T14:41:12.964Z,25.90
2019-04-26T14:43:41.025Z,25.60
2019-04-26T14:46:10.341Z,25.40
2019-04-26T14:48:40.538Z,25.30
2019-04-26T14:51:08.341Z,25.40
2019-04-26T14:53:36.340Z,25.40
2019-04-26T14:56:03.981Z,25.50
2019-04-26T14:58:33.603Z,25.70
2019-04-26T15:01:03.135Z,25.50
2019-04-26T15:03:58.403Z,25.50
2019-04-26T15:06:32.256Z,25.50
2019-04-26T15:08:59.688Z,25.30
2019-04-26T15:11:26.892Z,25.20
2019-04-26T15:13:54.097Z,24.80
2019-04-26T15:16:22.730Z,24.80
2019-04-26T15:18:50.472Z,24.80
2019-04-26T15:21:17.697Z,24.90
2019-04-26T15:23:45.357Z,24.70
2019-04-26T15:26:13.053Z,24.90
2019-04-26T15:28:43.716Z,24.90
2019-04-26T15:31:09.748Z,24.70
2019-04-26T15:33:36.985Z,24.50
2019-04-26T15:36:06.443Z,24.40
2019-04-26T15:38:41.121Z,24.20
2019-04-26T15:41:22.775Z,24.30
2019-04-26T15:44:11.991Z,24.20
2019-04-26T15:46:57.762Z,24.10
2019-04-26T15:49:59.280Z,24.10
2019-04-26T15:52:26.489Z,23.80
2019-04-26T15:54:58.984Z,23.40
2019-04-26T15:57:24.397Z,23.20
2019-04-26T15:59:54.389Z,23.20
2019-04-26T16:02:24.632Z,23.10
2019-04-26T16:04:54.184Z,23.00
2019-04-26T16:07:27.484Z,23.00
2019-04-26T16:09:53.851Z,22.60
2019-04-26T16:12:20.269Z,21.90
2019-04-26T16:14:49.594Z,21.60
2019-04-26T16:17:17.284Z,21.20
2019-04-26T16:19:44.517Z,21.00
2019-04-26T16:22:11.744Z,21.00
2019-04-26T16:24:39.173Z,21.00
2019-04-26T16:27:06.421Z,20.90
2019-04-26T16:30:05.232Z,20.70
2019-04-26T16:32:58.840Z,20.70
2019-04-26T16:35:28.329Z,20.40
2019-04-26T16:37:59.842Z,20.40
2019-04-26T16:40:26.054Z,20.40
2019-04-26T16:42:56.563Z,20.40
2019-04-26T16:45:23.101Z,20.40
2019-04-26T16:47:50.415Z,20.30
2019-04-26T16:50:23.936Z,20.40
2019-04-26T16:52:47.786Z,20.20
2019-04-26T16:55:20.838Z,19.70
2019-04-26T16:57:54.804Z,19.40
2019-04-26T17:00:16.322Z,19.10
2019-04-26T17:02:44.131Z,19.30
2019-04-26T17:05:19.174Z,19.00
2019-04-26T17:07:43.728Z,18.80
2019-04-26T17:10:12.132Z,18.30
2019-04-26T17:12:39.417Z,18.30
2019-04-26T17:15:07.325Z,18.00
2019-04-26T17:17:34.671Z,17.80
2019-04-26T17:20:02.598Z,17.60
2019-04-26T17:22:56.331Z,17.50
2019-04-26T17:25:24.416Z,17.50
2019-04-26T17:27:50.958Z,17.30
2019-04-26T17:30:21.617Z,17.20
2019-04-26T17:32:51.543Z,17.10
2019-04-26T17:35:18.055Z,16.80
2019-04-26T17:37:45.348Z,16.50
2019-04-26T17:40:12.541Z,16.30
2019-04-26T17:42:40.805Z,16.10
2019-04-26T17:45:08.161Z,15.90
2019-04-26T17:47:39.900Z,15.70
2019-04-26T17:50:06.451Z,15.80
2019-04-26T17:52:36.124Z,15.60
2019-04-26T17:55:03.643Z,15.40
2019-04-26T17:57:34.748Z,15.30
2019-04-26T18:00:07.972Z,15.40
2019-04-26T18:02:41.436Z,15.20
2019-04-26T18:05:03.014Z,15.20
2019-04-26T18:07:42.941Z,15.10
2019-04-26T18:10:04.374Z,15.00
2019-04-26T18:12:26.443Z,15.00
2019-04-26T18:14:53.865Z,14.80
2019-04-26T18:17:36.454Z,14.60
2019-04-26T18:20:23.537Z,14.40
2019-04-26T18:22:58.193Z,14.30
2019-04-26T18:25:25.392Z,14.50
2019-04-26T18:27:53.514Z,14.60
2019-04-26T18:30:21.152Z,14.50
2019-04-26T18:32:48.349Z,14.50
2019-04-26T18:35:16.922Z,14.70
2019-04-26T18:37:44.300Z,14.60
2019-04-26T18:40:12.169Z,14.50
2019-04-26T18:42:41.923Z,14.10
2019-04-26T18:45:09.025Z,14.00
2019-04-26T18:47:39.549Z,13.90
2019-04-26T18:50:07.929Z,13.80
2019-04-26T18:52:37.622Z,13.70
2019-04-26T18:55:16.282Z,13.70
2019-04-26T18:57:47.367Z,13.80
2019-04-26T19:00:26.582Z,13.70
2019-04-26T19:02:53.057Z,13.60
2019-04-26T19:05:26.959Z,13.60
2019-04-26T19:07:52.816Z,13.50
2019-04-26T19:10:21.678Z,13.50
2019-04-26T19:12:50.014Z,13.50
2019-04-26T19:15:41.746Z,13.60
2019-04-26T19:18:31.428Z,13.60
2019-04-26T19:21:04.425Z,13.40
2019-04-26T19:23:32.914Z,13.10
2019-04-26T19:26:01.789Z,12.80
2019-04-26T19:28:29.394Z,12.70
2019-04-26T19:30:57.344Z,12.70
2019-04-26T19:33:26.177Z,12.60
2019-04-26T19:35:54.117Z,12.80
2019-04-26T19:38:21.382Z,13.00
2019-04-26T19:40:48.751Z,12.90
2019-04-26T19:43:28.347Z,12.90
2019-04-26T19:46:04.862Z,12.90
2019-04-26T19:48:39.817Z,12.90
2019-04-26T19:51:32.496Z,12.70
2019-04-26T19:54:37.362Z,12.60
2019-04-26T19:57:11.385Z,12.40
2019-04-26T19:59:39.168Z,12.20
2019-04-26T20:02:07.092Z,12.10
2019-04-26T20:04:34.655Z,12.20
2019-04-26T20:07:03.877Z,11.90
2019-04-26T20:09:31.935Z,11.80
2019-04-26T20:11:59.428Z,11.60
2019-04-26T20:14:39.923Z,11.70
2019-04-26T20:16:56.050Z,11.70
2019-04-26T20:19:34.344Z,11.90
2019-04-26T20:21:52.777Z,12.00
2019-04-26T20:24:20.181Z,12.10
2019-04-26T20:26:48.741Z,12.10
2019-04-26T20:29:16.318Z,12.20
2019-04-26T20:31:59.019Z,12.30
2019-04-26T20:34:26.387Z,12.30
2019-04-26T20:36:53.601Z,11.90
2019-04-26T20:39:23.988Z,11.90
2019-04-26T20:42:00.688Z,11.90
2019-04-26T20:44:23.881Z,11.80
2019-04-26T20:46:48.781Z,11.70
2019-04-26T20:49:15.989Z,11.70
2019-04-26T20:51:46.229Z,11.60
2019-04-26T20:54:16.439Z,11.70
2019-04-26T20:56:42.145Z,11.80
2019-04-26T20:59:09.653Z,11.80
2019-04-26T21:01:37.024Z,11.80
2019-04-26T21:04:04.338Z,11.80
2019-04-26T21:06:33.853Z,11.60
2019-04-26T21:09:03.334Z,11.70
2019-04-26T21:11:37.177Z,11.70
2019-04-26T21:14:01.886Z,11.80
2019-04-26T21:16:30.229Z,11.90
2019-04-26T21:18:57.449Z,11.80
2019-04-26T21:21:24.762Z,11.80
2019-04-26T21:23:52.262Z,11.80
2019-04-26T21:26:32.214Z,11.90
2019-04-26T21:29:08.320Z,12.00
2019-04-26T21:31:47.232Z,12.10
2019-04-26T21:34:21.737Z,12.00
2019-04-26T21:37:06.477Z,11.90
2019-04-26T21:39:47.727Z,11.80
2019-04-26T21:42:17.245Z,11.90
2019-04-26T21:44:51.290Z,12.00
2019-04-26T21:47:14.408Z,12.00
2019-04-26T21:49:42.977Z,11.80
2019-04-26T21:52:10.333Z,11.70
2019-04-26T21:54:37.532Z,11.80
2019-04-26T21:57:04.737Z,11.80
2019-04-26T21:59:35.199Z,11.90
2019-04-26T22:02:01.221Z,11.90
2019-04-26T22:04:33.038Z,12.00
2019-04-26T22:06:59.763Z,11.90
2019-04-26T22:09:52.792Z,11.90
2019-04-26T22:12:23.195Z,11.80
2019-04-26T22:15:00.830Z,11.90
2019-04-26T22:17:40.433Z,11.90
2019-04-26T22:20:23.423Z,12.00
2019-04-26T22:23:11.575Z,11.70
2019-04-26T22:25:40.041Z,11.70
2019-04-26T22:28:07.257Z,11.70
2019-04-26T22:30:34.564Z,11.60
2019-04-26T22:33:03.041Z,11.60
2019-04-26T22:35:30.526Z,11.60
2019-04-26T22:37:58.024Z,11.40
2019-04-26T22:40:25.232Z,11.40
2019-04-26T22:42:58.698Z,11.50
2019-04-26T22:45:45.522Z,11.40
2019-04-26T22:48:19.379Z,11.40
2019-04-26T22:50:43.628Z,11.50
2019-04-26T22:53:12.010Z,11.50
2019-04-26T22:55:39.409Z,11.30
2019-04-26T22:58:06.608Z,11.40
2019-04-26T23:00:38.070Z,11.30
2019-04-26T23:03:07.297Z,11.20
2019-04-26T23:05:37.250Z,11.30
2019-04-26T23:08:04.409Z,11.10
2019-04-26T23:10:39.949Z,11.00
2019-04-26T23:13:30.342Z,11.00
2019-04-26T23:16:35.233Z,11.00
2019-04-26T23:19:15.235Z,11.20
2019-04-26T23:21:52.717Z,11.00
2019-04-26T23:24:17.547Z,11.00
2019-04-26T23:26:45.125Z,11.00
2019-04-26T23:29:17.535Z,11.00
2019-04-26T23:31:41.748Z,10.90
2019-04-26T23:34:09.471Z,10.90
2019-04-26T23:36:36.680Z,11.00
2019-04-26T23:39:07.561Z,11.00
2019-04-26T23:41:37.538Z,10.90
2019-04-26T23:44:06.575Z,10.90
2019-04-26T23:46:33.106Z,10.90
2019-04-26T23:49:00.457Z,10.90
2019-04-26T23:51:27.788Z,11.00
2019-04-26T23:53:57.690Z,10.90
2019-04-26T23:56:25.255Z,11.00
2019-04-26T23:58:53.190Z,11.00
